WLF1PT FEFF-FTTD
Flight info
| Callsign | WLF1PT |
|---|---|
| Flight time | N/A |
| Altitude | 6000 |
| Route | MPK DCT BT DCT TD |
| Aircraft | C208/L-SDFGR/C |
Departure
| Time | 2026-05-06 19:50 |
|---|---|
| Airport | Bangui M'Poko International Airport (FEFF) |
Arrival
| Time | N/A |
|---|---|
| Airport | Moundou Airport (FTTD) |
| Time | Latitude | Longitude | Altitude | Speed | Heading |
|---|---|---|---|---|---|
| 2026-05-06 19:33 | 4.40507 | 18.52202 | 1204 ft | 0 kts | 81° |
| 2026-05-06 19:44 | 4.40492 | 18.52225 | 1204 ft | 10 kts | 184° |
| 2026-05-06 19:44 | 4.40486 | 18.52192 | 1204 ft | 0 kts | 297° |
| 2026-05-06 19:45 | 4.40502 | 18.52168 | 1204 ft | 11 kts | 306° |
| 2026-05-06 19:45 | 4.40499 | 18.52050 | 1204 ft | 24 kts | 255° |
| 2026-05-06 19:46 | 4.40479 | 18.51978 | 1204 ft | 0 kts | 253° |
| 2026-05-06 19:47 | 4.40478 | 18.51976 | 1204 ft | 3 kts | 254° |
| 2026-05-06 19:47 | 4.40460 | 18.51903 | 1203 ft | 19 kts | 255° |
| 2026-05-06 19:47 | 4.40344 | 18.51832 | 1202 ft | 31 kts | 167° |
| 2026-05-06 19:48 | 4.40096 | 18.51905 | 1201 ft | 43 kts | 168° |
| 2026-05-06 19:48 | 4.39776 | 18.51983 | 1199 ft | 47 kts | 165° |
| 2026-05-06 19:48 | 4.39638 | 18.51996 | 1198 ft | 11 kts | 344° |
| 2026-05-06 19:48 | 4.39659 | 18.52002 | 1198 ft | 3 kts | 12° |
| 2026-05-06 19:49 | 4.39676 | 18.52001 | 1198 ft | 0 kts | 344° |
| 2026-05-06 19:49 | 4.39751 | 18.51982 | 1199 ft | 31 kts | 345° |
| 2026-05-06 19:49 | 4.40136 | 18.51882 | 1202 ft | 84 kts | 346° |
| 2026-05-06 19:49 | 4.40794 | 18.51703 | 1351 ft | 107 kts | 342° |
| 2026-05-06 19:50 | 4.41475 | 18.51371 | 1653 ft | 107 kts | 314° |
| 2026-05-06 19:50 | 4.41704 | 18.50701 | 1947 ft | 111 kts | 265° |
| 2026-05-06 19:50 | 4.41571 | 18.49884 | 2088 ft | 122 kts | 249° |
| 2026-05-06 19:50 | 4.41424 | 18.49013 | 2236 ft | 131 kts | 259° |
| 2026-05-06 19:51 | 4.41206 | 18.48117 | 2382 ft | 134 kts | 244° |
| 2026-05-06 19:51 | 4.40787 | 18.47270 | 2521 ft | 137 kts | 240° |
| 2026-05-06 19:51 | 4.40325 | 18.46430 | 2666 ft | 138 kts | 238° |
| 2026-05-06 19:51 | 4.39844 | 18.45590 | 2806 ft | 140 kts | 238° |
| 2026-05-06 19:52 | 4.39352 | 18.44748 | 2949 ft | 140 kts | 237° |
| 2026-05-06 19:52 | 4.38853 | 18.43903 | 3092 ft | 140 kts | 237° |
| 2026-05-06 19:52 | 4.38352 | 18.43062 | 3235 ft | 141 kts | 237° |
| 2026-05-06 19:52 | 4.37809 | 18.42238 | 3371 ft | 142 kts | 236° |
| 2026-05-06 19:53 | 4.37383 | 18.41342 | 3510 ft | 143 kts | 248° |
| 2026-05-06 19:53 | 4.37109 | 18.40378 | 3659 ft | 144 kts | 256° |
| 2026-05-06 19:53 | 4.36925 | 18.39387 | 3798 ft | 145 kts | 261° |
| 2026-05-06 19:53 | 4.36819 | 18.38381 | 3941 ft | 145 kts | 264° |
| 2026-05-06 19:54 | 4.36754 | 18.37364 | 4077 ft | 150 kts | 265° |
| 2026-05-06 19:54 | 4.36698 | 18.36294 | 4220 ft | 157 kts | 266° |
| 2026-05-06 19:54 | 4.36635 | 18.35200 | 4367 ft | 161 kts | 265° |
| 2026-05-06 19:54 | 4.36554 | 18.34070 | 4513 ft | 164 kts | 264° |
| 2026-05-06 19:55 | 4.36462 | 18.32929 | 4663 ft | 165 kts | 264° |
| 2026-05-06 19:55 | 4.36370 | 18.31776 | 4805 ft | 167 kts | 265° |
| 2026-05-06 19:55 | 4.36287 | 18.30613 | 4948 ft | 168 kts | 265° |
| 2026-05-06 19:55 | 4.36212 | 18.29438 | 5091 ft | 169 kts | 265° |
| 2026-05-06 19:56 | 4.36137 | 18.28258 | 5230 ft | 170 kts | 265° |
| 2026-05-06 19:56 | 4.36057 | 18.27070 | 5372 ft | 171 kts | 265° |
| 2026-05-06 19:56 | 4.35970 | 18.25878 | 5514 ft | 172 kts | 265° |
| 2026-05-06 19:56 | 4.35881 | 18.24681 | 5658 ft | 173 kts | 265° |
| 2026-05-06 19:57 | 4.35795 | 18.23470 | 5771 ft | 176 kts | 265° |
| 2026-05-06 19:57 | 4.35709 | 18.22230 | 5825 ft | 181 kts | 266° |
| 2026-05-06 19:57 | 4.35623 | 18.20960 | 5851 ft | 185 kts | 266° |
| 2026-05-06 19:57 | 4.35534 | 18.19661 | 5863 ft | 189 kts | 266° |
| 2026-05-06 19:58 | 4.35444 | 18.18344 | 5861 ft | 190 kts | 265° |
| 2026-05-06 19:58 | 4.35350 | 18.17032 | 5867 ft | 189 kts | 265° |
| 2026-05-06 19:58 | 4.35256 | 18.15719 | 5866 ft | 189 kts | 265° |
| 2026-05-06 19:58 | 4.35164 | 18.14409 | 5869 ft | 189 kts | 265° |
| 2026-05-06 19:59 | 4.35074 | 18.13098 | 5870 ft | 188 kts | 265° |
| 2026-05-06 19:59 | 4.34983 | 18.11789 | 5863 ft | 188 kts | 266° |
| 2026-05-06 19:59 | 4.34891 | 18.10479 | 5869 ft | 189 kts | 265° |
| 2026-05-06 19:59 | 4.34798 | 18.09168 | 5873 ft | 189 kts | 265° |
| 2026-05-06 20:00 | 4.34708 | 18.07877 | 5871 ft | 188 kts | 266° |
| 2026-05-06 20:00 | 4.34618 | 18.06570 | 5875 ft | 188 kts | 266° |
| 2026-05-06 20:00 | 4.34528 | 18.05264 | 5874 ft | 188 kts | 266° |
| 2026-05-06 20:00 | 4.34437 | 18.03955 | 5873 ft | 188 kts | 265° |
| 2026-05-06 20:01 | 4.34344 | 18.02650 | 5874 ft | 188 kts | 265° |
| 2026-05-06 20:01 | 4.34251 | 18.01344 | 5879 ft | 188 kts | 265° |
| 2026-05-06 20:01 | 4.34161 | 18.00040 | 5880 ft | 188 kts | 266° |
| 2026-05-06 20:01 | 4.34070 | 17.98732 | 5880 ft | 188 kts | 266° |
| 2026-05-06 20:02 | 4.33979 | 17.97423 | 5880 ft | 189 kts | 266° |
| 2026-05-06 20:02 | 4.33889 | 17.96112 | 5875 ft | 188 kts | 265° |
| 2026-05-06 20:02 | 4.33798 | 17.94808 | 5880 ft | 188 kts | 265° |
| 2026-05-06 20:02 | 4.33704 | 17.93494 | 5878 ft | 188 kts | 265° |
| 2026-05-06 20:03 | 4.33612 | 17.92184 | 5882 ft | 188 kts | 265° |
| 2026-05-06 20:03 | 4.33521 | 17.90873 | 5885 ft | 189 kts | 265° |
| 2026-05-06 20:03 | 4.33430 | 17.89562 | 5875 ft | 189 kts | 266° |
| 2026-05-06 20:03 | 4.33339 | 17.88252 | 5883 ft | 188 kts | 265° |
| 2026-05-06 20:04 | 4.33247 | 17.86943 | 5885 ft | 189 kts | 265° |
| 2026-05-06 20:04 | 4.33155 | 17.85629 | 5882 ft | 189 kts | 266° |
| 2026-05-06 20:04 | 4.33064 | 17.84314 | 5886 ft | 189 kts | 265° |
| 2026-05-06 20:04 | 4.32973 | 17.82997 | 5885 ft | 189 kts | 265° |
| 2026-05-06 20:05 | 4.32879 | 17.81681 | 5884 ft | 190 kts | 265° |
| 2026-05-06 20:05 | 4.32787 | 17.80365 | 5882 ft | 189 kts | 266° |
| 2026-05-06 20:05 | 4.32695 | 17.79051 | 5878 ft | 189 kts | 265° |
| 2026-05-06 20:05 | 4.32605 | 17.77755 | 5884 ft | 189 kts | 265° |
| 2026-05-06 20:06 | 4.32514 | 17.76442 | 5887 ft | 189 kts | 266° |
| 2026-05-06 20:06 | 4.32422 | 17.75127 | 5888 ft | 189 kts | 266° |
| 2026-05-06 20:06 | 4.32330 | 17.73813 | 5885 ft | 189 kts | 266° |
| 2026-05-06 20:06 | 4.32240 | 17.72501 | 5887 ft | 189 kts | 265° |
| 2026-05-06 20:07 | 4.32147 | 17.71191 | 5885 ft | 188 kts | 265° |
| 2026-05-06 20:07 | 4.32054 | 17.69884 | 5887 ft | 188 kts | 265° |
| 2026-05-06 20:07 | 4.31962 | 17.68573 | 5886 ft | 188 kts | 265° |
| 2026-05-06 20:07 | 4.31872 | 17.67267 | 5885 ft | 188 kts | 265° |
| 2026-05-06 20:08 | 4.31782 | 17.65960 | 5889 ft | 188 kts | 265° |
| 2026-05-06 20:08 | 4.31691 | 17.64650 | 5891 ft | 188 kts | 265° |
| 2026-05-06 20:08 | 4.31600 | 17.63343 | 5887 ft | 188 kts | 265° |
| 2026-05-06 20:08 | 4.31507 | 17.62033 | 5891 ft | 189 kts | 265° |
| 2026-05-06 20:09 | 4.31445 | 17.61162 | 5891 ft | 189 kts | 265° |
| 2026-05-06 20:09 | 4.31324 | 17.59424 | 5890 ft | 189 kts | 265° |
| 2026-05-06 20:09 | 4.31233 | 17.58111 | 5890 ft | 189 kts | 265° |
| 2026-05-06 20:09 | 4.31143 | 17.56798 | 5891 ft | 189 kts | 265° |
| 2026-05-06 20:10 | 4.31050 | 17.55485 | 5894 ft | 189 kts | 265° |
| 2026-05-06 20:10 | 4.30956 | 17.54169 | 5894 ft | 189 kts | 265° |
| 2026-05-06 20:10 | 4.30865 | 17.52851 | 5891 ft | 189 kts | 265° |
| 2026-05-06 20:10 | 4.30774 | 17.51538 | 5891 ft | 189 kts | 265° |
| 2026-05-06 20:11 | 4.30683 | 17.50226 | 5888 ft | 189 kts | 265° |
| 2026-05-06 20:11 | 4.30593 | 17.48916 | 5889 ft | 189 kts | 265° |
| 2026-05-06 20:11 | 4.30499 | 17.47603 | 5889 ft | 189 kts | 265° |
| 2026-05-06 20:11 | 4.30406 | 17.46294 | 5898 ft | 189 kts | 265° |
| 2026-05-06 20:12 | 4.30314 | 17.44980 | 5895 ft | 189 kts | 266° |
| 2026-05-06 20:12 | 4.30223 | 17.43669 | 5898 ft | 189 kts | 266° |
| 2026-05-06 20:12 | 4.30165 | 17.42799 | 5896 ft | 189 kts | 266° |
| 2026-05-06 20:12 | 4.30074 | 17.41486 | 5893 ft | 189 kts | 265° |
| 2026-05-06 20:13 | 4.29949 | 17.39746 | 5899 ft | 189 kts | 265° |
| 2026-05-06 20:13 | 4.29859 | 17.38430 | 5897 ft | 189 kts | 265° |
| 2026-05-06 20:13 | 4.29767 | 17.37115 | 5895 ft | 189 kts | 265° |
| 2026-05-06 20:13 | 4.29673 | 17.35798 | 5898 ft | 189 kts | 265° |
| 2026-05-06 20:14 | 4.29612 | 17.34922 | 5897 ft | 190 kts | 265° |
| 2026-05-06 20:14 | 4.29520 | 17.33604 | 5898 ft | 190 kts | 265° |
| 2026-05-06 20:14 | 4.29430 | 17.32282 | 5898 ft | 190 kts | 265° |
| 2026-05-06 20:14 | 4.29338 | 17.30958 | 5899 ft | 190 kts | 265° |
| 2026-05-06 20:15 | 4.29244 | 17.29636 | 5902 ft | 190 kts | 265° |
| 2026-05-06 20:15 | 4.29151 | 17.28312 | 5901 ft | 190 kts | 265° |
| 2026-05-06 20:15 | 4.29060 | 17.26990 | 5901 ft | 190 kts | 265° |
| 2026-05-06 20:15 | 4.28966 | 17.25664 | 5903 ft | 191 kts | 265° |
| 2026-05-06 20:16 | 4.28873 | 17.24340 | 5899 ft | 190 kts | 265° |
| 2026-05-06 20:16 | 4.28777 | 17.23016 | 5896 ft | 190 kts | 265° |
| 2026-05-06 20:16 | 4.28686 | 17.21693 | 5901 ft | 190 kts | 266° |
| 2026-05-06 20:16 | 4.28603 | 17.20373 | 5903 ft | 190 kts | 265° |
| 2026-05-06 20:17 | 4.28513 | 17.19050 | 5901 ft | 190 kts | 265° |
| 2026-05-06 20:17 | 4.28418 | 17.17734 | 5893 ft | 189 kts | 265° |
| 2026-05-06 20:17 | 4.28319 | 17.16418 | 5902 ft | 189 kts | 265° |
| 2026-05-06 20:17 | 4.28224 | 17.15102 | 5902 ft | 189 kts | 265° |
| 2026-05-06 20:18 | 4.28133 | 17.13804 | 5898 ft | 189 kts | 265° |
| 2026-05-06 20:18 | 4.28047 | 17.12490 | 5902 ft | 189 kts | 265° |
| 2026-05-06 20:18 | 4.27957 | 17.11173 | 5896 ft | 190 kts | 265° |
| 2026-05-06 20:18 | 4.27866 | 17.09854 | 5902 ft | 190 kts | 265° |
| 2026-05-06 20:19 | 4.27772 | 17.08535 | 5907 ft | 190 kts | 265° |
| 2026-05-06 20:19 | 4.27676 | 17.07215 | 5903 ft | 190 kts | 265° |
| 2026-05-06 20:19 | 4.27605 | 17.05892 | 5903 ft | 190 kts | 266° |
| 2026-05-06 20:19 | 4.27545 | 17.04571 | 5904 ft | 190 kts | 267° |
| 2026-05-06 20:20 | 4.27488 | 17.03246 | 5909 ft | 191 kts | 267° |
| 2026-05-06 20:20 | 4.27432 | 17.01918 | 5909 ft | 191 kts | 267° |
| 2026-05-06 20:20 | 4.27377 | 17.00589 | 5912 ft | 191 kts | 267° |
| 2026-05-06 20:20 | 4.27324 | 16.99260 | 5906 ft | 191 kts | 267° |
| 2026-05-06 20:21 | 4.27271 | 16.97929 | 5904 ft | 191 kts | 267° |
| 2026-05-06 20:21 | 4.27221 | 16.96601 | 5907 ft | 191 kts | 267° |
| 2026-05-06 20:21 | 4.27169 | 16.95273 | 5906 ft | 190 kts | 267° |
| 2026-05-06 20:21 | 4.27115 | 16.93950 | 5909 ft | 190 kts | 267° |
| 2026-05-06 20:22 | 4.27062 | 16.92624 | 5908 ft | 191 kts | 267° |
| 2026-05-06 20:22 | 4.27006 | 16.91295 | 5906 ft | 190 kts | 267° |
| 2026-05-06 20:22 | 4.26954 | 16.89986 | 5909 ft | 190 kts | 267° |
| 2026-05-06 20:22 | 4.26898 | 16.88661 | 5910 ft | 190 kts | 267° |
| 2026-05-06 20:23 | 4.26843 | 16.87334 | 5908 ft | 190 kts | 267° |
| 2026-05-06 20:23 | 4.26789 | 16.86010 | 5910 ft | 190 kts | 267° |
| 2026-05-06 20:23 | 4.26734 | 16.84681 | 5909 ft | 190 kts | 267° |
| 2026-05-06 20:23 | 4.26679 | 16.83359 | 5909 ft | 190 kts | 267° |
| 2026-05-06 20:24 | 4.26624 | 16.82036 | 5908 ft | 190 kts | 267° |
| 2026-05-06 20:24 | 4.26572 | 16.80712 | 5909 ft | 190 kts | 268° |
| 2026-05-06 20:24 | 4.26513 | 16.79388 | 5907 ft | 190 kts | 267° |
| 2026-05-06 20:24 | 4.26459 | 16.78070 | 5913 ft | 190 kts | 267° |
| 2026-05-06 20:25 | 4.26403 | 16.76740 | 5908 ft | 191 kts | 267° |
| 2026-05-06 20:25 | 4.26350 | 16.75410 | 5915 ft | 191 kts | 267° |
| 2026-05-06 20:25 | 4.26301 | 16.74081 | 5912 ft | 191 kts | 267° |
| 2026-05-06 20:25 | 4.26249 | 16.72754 | 5912 ft | 190 kts | 267° |
| 2026-05-06 20:26 | 4.26197 | 16.71445 | 5914 ft | 191 kts | 267° |
| 2026-05-06 20:26 | 4.26143 | 16.70102 | 5912 ft | 191 kts | 267° |
| 2026-05-06 20:26 | 4.26082 | 16.68793 | 5912 ft | 191 kts | 267° |
| 2026-05-06 20:26 | 4.26009 | 16.67466 | 5914 ft | 191 kts | 267° |
| 2026-05-06 20:27 | 4.25938 | 16.66136 | 5916 ft | 191 kts | 267° |
| 2026-05-06 20:27 | 4.25869 | 16.64807 | 5912 ft | 191 kts | 267° |
| 2026-05-06 20:27 | 4.25798 | 16.63475 | 5906 ft | 191 kts | 267° |
| 2026-05-06 20:27 | 4.25730 | 16.62149 | 5914 ft | 191 kts | 267° |
| 2026-05-06 20:28 | 4.25661 | 16.60821 | 5911 ft | 191 kts | 267° |
| 2026-05-06 20:28 | 4.25593 | 16.59495 | 5911 ft | 190 kts | 267° |
| 2026-05-06 20:28 | 4.25522 | 16.58170 | 5913 ft | 190 kts | 267° |
| 2026-05-06 20:28 | 4.25450 | 16.56847 | 5915 ft | 190 kts | 267° |
| 2026-05-06 20:29 | 4.25379 | 16.55524 | 5917 ft | 190 kts | 267° |
| 2026-05-06 20:29 | 4.25308 | 16.54198 | 5918 ft | 191 kts | 267° |
| 2026-05-06 20:29 | 4.25237 | 16.52871 | 5914 ft | 190 kts | 267° |
| 2026-05-06 20:29 | 4.25164 | 16.51551 | 5910 ft | 190 kts | 267° |
| 2026-05-06 20:30 | 4.25094 | 16.50229 | 5919 ft | 190 kts | 267° |
| 2026-05-06 20:30 | 4.24946 | 16.47574 | 5916 ft | 191 kts | 267° |
| 2026-05-06 20:30 | 4.24875 | 16.46265 | 5912 ft | 191 kts | 267° |
| 2026-05-06 20:31 | 4.24801 | 16.44938 | 5914 ft | 190 kts | 267° |
| 2026-05-06 20:31 | 4.24731 | 16.43606 | 5918 ft | 191 kts | 267° |
| 2026-05-06 20:31 | 4.24661 | 16.42279 | 5907 ft | 191 kts | 267° |
| 2026-05-06 20:31 | 4.24589 | 16.40951 | 5916 ft | 191 kts | 267° |
| 2026-05-06 20:32 | 4.24521 | 16.39621 | 5915 ft | 191 kts | 267° |
| 2026-05-06 20:32 | 4.24450 | 16.38290 | 5916 ft | 191 kts | 267° |
| 2026-05-06 20:32 | 4.24379 | 16.36959 | 5916 ft | 191 kts | 267° |
| 2026-05-06 20:32 | 4.24309 | 16.35627 | 5918 ft | 191 kts | 267° |
| 2026-05-06 20:33 | 4.24237 | 16.34297 | 5910 ft | 191 kts | 267° |
| 2026-05-06 20:33 | 4.24156 | 16.32969 | 5914 ft | 191 kts | 267° |
| 2026-05-06 20:33 | 4.24075 | 16.31654 | 5914 ft | 191 kts | 267° |
| 2026-05-06 20:33 | 4.23992 | 16.30307 | 5914 ft | 191 kts | 267° |
| 2026-05-06 20:34 | 4.23912 | 16.28997 | 5913 ft | 191 kts | 267° |
| 2026-05-06 20:34 | 4.23832 | 16.27666 | 5914 ft | 191 kts | 267° |
| 2026-05-06 20:34 | 4.23751 | 16.26337 | 5913 ft | 191 kts | 267° |
| 2026-05-06 20:34 | 4.23669 | 16.25007 | 5913 ft | 191 kts | 267° |
| 2026-05-06 20:35 | 4.23589 | 16.23680 | 5916 ft | 191 kts | 267° |
| 2026-05-06 20:35 | 4.23505 | 16.22351 | 5918 ft | 191 kts | 267° |
| 2026-05-06 20:35 | 4.23423 | 16.21020 | 5917 ft | 191 kts | 267° |
| 2026-05-06 20:35 | 4.23341 | 16.19690 | 5918 ft | 192 kts | 267° |
| 2026-05-06 20:36 | 4.23262 | 16.18358 | 5920 ft | 192 kts | 267° |
| 2026-05-06 20:36 | 4.23182 | 16.17023 | 5919 ft | 192 kts | 267° |
| 2026-05-06 20:36 | 4.23100 | 16.15691 | 5918 ft | 192 kts | 267° |
| 2026-05-06 20:36 | 4.23020 | 16.14352 | 5916 ft | 192 kts | 267° |
| 2026-05-06 20:37 | 4.22940 | 16.13016 | 5918 ft | 192 kts | 267° |
| 2026-05-06 20:37 | 4.22860 | 16.11683 | 5916 ft | 192 kts | 267° |
| 2026-05-06 20:37 | 4.22778 | 16.10346 | 5917 ft | 192 kts | 267° |
| 2026-05-06 20:37 | 4.22699 | 16.09011 | 5916 ft | 192 kts | 267° |
| 2026-05-06 20:38 | 4.22618 | 16.07676 | 5914 ft | 192 kts | 267° |
| 2026-05-06 20:38 | 4.22537 | 16.06344 | 5916 ft | 192 kts | 267° |
| 2026-05-06 20:38 | 4.22456 | 16.05012 | 5916 ft | 191 kts | 267° |
| 2026-05-06 20:38 | 4.22375 | 16.03679 | 5917 ft | 192 kts | 267° |
| 2026-05-06 20:39 | 4.22301 | 16.02347 | 5914 ft | 191 kts | 271° |
| 2026-05-06 20:39 | 4.22720 | 16.01122 | 5915 ft | 187 kts | 308° |
| 2026-05-06 20:39 | 4.23503 | 16.00087 | 5918 ft | 186 kts | 313° |
| 2026-05-06 20:39 | 4.24360 | 15.99116 | 5917 ft | 186 kts | 315° |
| 2026-05-06 20:40 | 4.25243 | 15.98164 | 5921 ft | 186 kts | 316° |
| 2026-05-06 20:40 | 4.26136 | 15.97223 | 5920 ft | 187 kts | 317° |
| 2026-05-06 20:40 | 4.27044 | 15.96287 | 5920 ft | 187 kts | 317° |
| 2026-05-06 20:40 | 4.27952 | 15.95357 | 5920 ft | 187 kts | 317° |
| 2026-05-06 20:41 | 4.28863 | 15.94427 | 5918 ft | 187 kts | 317° |
| 2026-05-06 20:41 | 4.29760 | 15.93509 | 5919 ft | 187 kts | 317° |
| 2026-05-06 20:41 | 4.30671 | 15.92581 | 5918 ft | 187 kts | 317° |
| 2026-05-06 20:41 | 4.31582 | 15.91653 | 5922 ft | 187 kts | 317° |
| 2026-05-06 20:42 | 4.32491 | 15.90725 | 5926 ft | 186 kts | 317° |
| 2026-05-06 20:42 | 4.33400 | 15.89800 | 5926 ft | 186 kts | 317° |
| 2026-05-06 20:42 | 4.34307 | 15.88871 | 5927 ft | 186 kts | 317° |
| 2026-05-06 20:42 | 4.35217 | 15.87944 | 5927 ft | 186 kts | 317° |
| 2026-05-06 20:43 | 4.36127 | 15.87023 | 5927 ft | 186 kts | 317° |
| 2026-05-06 20:43 | 4.37045 | 15.86104 | 5928 ft | 187 kts | 317° |
| 2026-05-06 20:43 | 4.37967 | 15.85187 | 5929 ft | 187 kts | 317° |
| 2026-05-06 20:43 | 4.38892 | 15.84266 | 5928 ft | 188 kts | 317° |
| 2026-05-06 20:44 | 4.39817 | 15.83341 | 5928 ft | 188 kts | 317° |
| 2026-05-06 20:44 | 4.40739 | 15.82420 | 5928 ft | 187 kts | 317° |
| 2026-05-06 20:44 | 4.41663 | 15.81503 | 5924 ft | 186 kts | 317° |
| 2026-05-06 20:44 | 4.42580 | 15.80593 | 5924 ft | 185 kts | 317° |
| 2026-05-06 20:45 | 4.43508 | 15.79696 | 5926 ft | 184 kts | 323° |
| 2026-05-06 20:45 | 4.44662 | 15.79310 | 5926 ft | 178 kts | 2° |
| 2026-05-06 20:45 | 4.45895 | 15.79356 | 5928 ft | 177 kts | 6° |
| 2026-05-06 20:45 | 4.47122 | 15.79460 | 5931 ft | 177 kts | 8° |
| 2026-05-06 20:46 | 4.48348 | 15.79595 | 5929 ft | 177 kts | 9° |
| 2026-05-06 20:46 | 4.49573 | 15.79737 | 5929 ft | 177 kts | 9° |
| 2026-05-06 20:46 | 4.50805 | 15.79848 | 5929 ft | 178 kts | 7° |
| 2026-05-06 20:46 | 4.52039 | 15.79926 | 5924 ft | 178 kts | 6° |
| 2026-05-06 20:47 | 4.53274 | 15.79984 | 5927 ft | 178 kts | 5° |
| 2026-05-06 20:47 | 4.54512 | 15.80036 | 5930 ft | 178 kts | 5° |
| 2026-05-06 20:47 | 4.55751 | 15.80094 | 5925 ft | 178 kts | 6° |
| 2026-05-06 20:47 | 4.56989 | 15.80166 | 5928 ft | 178 kts | 6° |
| 2026-05-06 20:48 | 4.58228 | 15.80239 | 5931 ft | 179 kts | 6° |
| 2026-05-06 20:48 | 4.59467 | 15.80307 | 5927 ft | 178 kts | 6° |
| 2026-05-06 20:48 | 4.60710 | 15.80371 | 5929 ft | 179 kts | 6° |
| 2026-05-06 20:48 | 4.61950 | 15.80432 | 5927 ft | 179 kts | 6° |
| 2026-05-06 20:49 | 4.63191 | 15.80494 | 5924 ft | 178 kts | 6° |
| 2026-05-06 20:49 | 4.64432 | 15.80560 | 5924 ft | 178 kts | 6° |
| 2026-05-06 20:49 | 4.65671 | 15.80627 | 5924 ft | 178 kts | 6° |
| 2026-05-06 20:49 | 4.66909 | 15.80693 | 5923 ft | 178 kts | 6° |
| 2026-05-06 20:50 | 4.68129 | 15.80759 | 5927 ft | 178 kts | 6° |
| 2026-05-06 20:50 | 4.69364 | 15.80823 | 5925 ft | 177 kts | 6° |
| 2026-05-06 20:50 | 4.70596 | 15.80886 | 5927 ft | 177 kts | 6° |
| 2026-05-06 20:50 | 4.71828 | 15.80949 | 5924 ft | 177 kts | 6° |
| 2026-05-06 20:51 | 4.73058 | 15.81016 | 5926 ft | 177 kts | 6° |
| 2026-05-06 20:51 | 4.74289 | 15.81082 | 5928 ft | 177 kts | 6° |
| 2026-05-06 20:51 | 4.75522 | 15.81145 | 5928 ft | 178 kts | 6° |
| 2026-05-06 20:51 | 4.76756 | 15.81208 | 5930 ft | 178 kts | 5° |
| 2026-05-06 20:52 | 4.77995 | 15.81278 | 5932 ft | 179 kts | 5° |
| 2026-05-06 20:52 | 4.79244 | 15.81342 | 5930 ft | 179 kts | 5° |
| 2026-05-06 20:52 | 4.80485 | 15.81406 | 5928 ft | 178 kts | 5° |
| 2026-05-06 20:52 | 4.81724 | 15.81468 | 5925 ft | 178 kts | 5° |
| 2026-05-06 20:53 | 4.82958 | 15.81532 | 5926 ft | 177 kts | 5° |
| 2026-05-06 20:53 | 4.84189 | 15.81600 | 5925 ft | 177 kts | 6° |
| 2026-05-06 20:53 | 4.85415 | 15.81666 | 5929 ft | 177 kts | 5° |
| 2026-05-06 20:53 | 4.86634 | 15.81731 | 5931 ft | 177 kts | 5° |
| 2026-05-06 20:54 | 4.87870 | 15.81795 | 5931 ft | 178 kts | 5° |
| 2026-05-06 20:54 | 4.89106 | 15.81858 | 5932 ft | 178 kts | 5° |
| 2026-05-06 20:54 | 4.90343 | 15.81921 | 5929 ft | 178 kts | 5° |
| 2026-05-06 20:54 | 4.91579 | 15.81989 | 5931 ft | 178 kts | 6° |
| 2026-05-06 20:55 | 4.92816 | 15.82053 | 5926 ft | 178 kts | 5° |
| 2026-05-06 20:55 | 4.94051 | 15.82121 | 5930 ft | 178 kts | 5° |
| 2026-05-06 20:55 | 4.95290 | 15.82186 | 5927 ft | 178 kts | 5° |
| 2026-05-06 20:55 | 4.96527 | 15.82250 | 5925 ft | 178 kts | 5° |
| 2026-05-06 20:56 | 4.97765 | 15.82312 | 5928 ft | 178 kts | 5° |
| 2026-05-06 20:56 | 4.98998 | 15.82377 | 5928 ft | 178 kts | 5° |
| 2026-05-06 20:56 | 5.00231 | 15.82443 | 5930 ft | 177 kts | 5° |
| 2026-05-06 20:56 | 5.01449 | 15.82497 | 5930 ft | 178 kts | 4° |
| 2026-05-06 20:57 | 5.02702 | 15.82519 | 5931 ft | 178 kts | 3° |
| 2026-05-06 20:57 | 5.03925 | 15.82519 | 5932 ft | 178 kts | 1° |
| 2026-05-06 20:57 | 5.05180 | 15.82493 | 5930 ft | 178 kts | 0° |
| 2026-05-06 20:57 | 5.06405 | 15.82444 | 5929 ft | 178 kts | 359° |
| 2026-05-06 20:58 | 5.07645 | 15.82371 | 5931 ft | 178 kts | 358° |
| 2026-05-06 20:58 | 5.08883 | 15.82274 | 5927 ft | 178 kts | 357° |
| 2026-05-06 20:58 | 5.10122 | 15.82153 | 5931 ft | 179 kts | 356° |
| 2026-05-06 20:58 | 5.11356 | 15.82008 | 5929 ft | 179 kts | 355° |
| 2026-05-06 20:59 | 5.12592 | 15.81839 | 5932 ft | 179 kts | 354° |
| 2026-05-06 20:59 | 5.13824 | 15.81648 | 5932 ft | 180 kts | 353° |
| 2026-05-06 20:59 | 5.15061 | 15.81432 | 5938 ft | 181 kts | 351° |
| 2026-05-06 20:59 | 5.16301 | 15.81192 | 5930 ft | 181 kts | 351° |
| 2026-05-06 21:00 | 5.17535 | 15.80929 | 5933 ft | 181 kts | 349° |
| 2026-05-06 21:00 | 5.18768 | 15.80641 | 5934 ft | 182 kts | 348° |
| 2026-05-06 21:00 | 5.19993 | 15.80332 | 5933 ft | 182 kts | 347° |
| 2026-05-06 21:00 | 5.21223 | 15.80255 | 5925 ft | 178 kts | 19° |
| 2026-05-06 21:01 | 5.22314 | 15.80803 | 5934 ft | 175 kts | 32° |
| 2026-05-06 21:01 | 5.23009 | 15.81211 | 5932 ft | 174 kts | 33° |
| 2026-05-06 21:01 | 5.24040 | 15.81850 | 5934 ft | 174 kts | 34° |
| 2026-05-06 21:01 | 5.25062 | 15.82503 | 5936 ft | 174 kts | 34° |
| 2026-05-06 21:02 | 5.26152 | 15.83040 | 5938 ft | 176 kts | 22° |
| 2026-05-06 21:02 | 5.27714 | 15.83488 | 5935 ft | 177 kts | 15° |
| 2026-05-06 21:02 | 5.28927 | 15.83716 | 5938 ft | 177 kts | 12° |
| 2026-05-06 21:02 | 5.29755 | 15.83846 | 5938 ft | 178 kts | 11° |
| 2026-05-06 21:03 | 5.30966 | 15.84015 | 5937 ft | 179 kts | 9° |
| 2026-05-06 21:03 | 5.32206 | 15.84130 | 5933 ft | 179 kts | 7° |
| 2026-05-06 21:03 | 5.33452 | 15.84209 | 5933 ft | 179 kts | 5° |
| 2026-05-06 21:03 | 5.34700 | 15.84263 | 5932 ft | 180 kts | 5° |
| 2026-05-06 21:04 | 5.35948 | 15.84314 | 5936 ft | 179 kts | 5° |
| 2026-05-06 21:04 | 5.37196 | 15.84374 | 5935 ft | 179 kts | 6° |
| 2026-05-06 21:04 | 5.38442 | 15.84450 | 5938 ft | 180 kts | 6° |
| 2026-05-06 21:04 | 5.39692 | 15.84525 | 5937 ft | 180 kts | 5° |
| 2026-05-06 21:05 | 5.40941 | 15.84594 | 5931 ft | 180 kts | 5° |
| 2026-05-06 21:05 | 5.42187 | 15.84656 | 5927 ft | 179 kts | 5° |
| 2026-05-06 21:05 | 5.43431 | 15.84716 | 5933 ft | 179 kts | 5° |
| 2026-05-06 21:05 | 5.44673 | 15.84777 | 5938 ft | 179 kts | 5° |
| 2026-05-06 21:06 | 5.45916 | 15.84843 | 5944 ft | 179 kts | 5° |
| 2026-05-06 21:06 | 5.47165 | 15.84913 | 5942 ft | 180 kts | 5° |
| 2026-05-06 21:06 | 5.48413 | 15.84982 | 5938 ft | 180 kts | 5° |
| 2026-05-06 21:06 | 5.49644 | 15.85047 | 5937 ft | 180 kts | 5° |
| 2026-05-06 21:07 | 5.50894 | 15.85114 | 5940 ft | 180 kts | 5° |
| 2026-05-06 21:07 | 5.52151 | 15.85176 | 5940 ft | 181 kts | 5° |
| 2026-05-06 21:07 | 5.53408 | 15.85238 | 5938 ft | 181 kts | 5° |
| 2026-05-06 21:07 | 5.54666 | 15.85305 | 5938 ft | 181 kts | 5° |
| 2026-05-06 21:08 | 5.55924 | 15.85374 | 5937 ft | 181 kts | 5° |
| 2026-05-06 21:08 | 5.57180 | 15.85443 | 5939 ft | 181 kts | 5° |
| 2026-05-06 21:08 | 5.58436 | 15.85510 | 5941 ft | 181 kts | 5° |
| 2026-05-06 21:08 | 5.59690 | 15.85575 | 5941 ft | 181 kts | 5° |
| 2026-05-06 21:09 | 5.60948 | 15.85638 | 5944 ft | 181 kts | 5° |
| 2026-05-06 21:09 | 5.62207 | 15.85704 | 5943 ft | 181 kts | 5° |
| 2026-05-06 21:09 | 5.63462 | 15.85771 | 5943 ft | 181 kts | 5° |
| 2026-05-06 21:09 | 5.64719 | 15.85838 | 5945 ft | 181 kts | 5° |
| 2026-05-06 21:10 | 5.65979 | 15.85905 | 5941 ft | 181 kts | 5° |
| 2026-05-06 21:10 | 5.67237 | 15.85972 | 5941 ft | 181 kts | 5° |
| 2026-05-06 21:10 | 5.68495 | 15.86038 | 5942 ft | 181 kts | 5° |
| 2026-05-06 21:10 | 5.69753 | 15.86104 | 5943 ft | 181 kts | 5° |
| 2026-05-06 21:11 | 5.70998 | 15.86168 | 5944 ft | 181 kts | 5° |
| 2026-05-06 21:11 | 5.72274 | 15.86235 | 5946 ft | 181 kts | 5° |
| 2026-05-06 21:11 | 5.73519 | 15.86303 | 5946 ft | 181 kts | 5° |
| 2026-05-06 21:11 | 5.74779 | 15.86370 | 5944 ft | 181 kts | 5° |
| 2026-05-06 21:12 | 5.76040 | 15.86437 | 5946 ft | 181 kts | 5° |
| 2026-05-06 21:12 | 5.77302 | 15.86487 | 5944 ft | 181 kts | 3° |
| 2026-05-06 21:12 | 5.78562 | 15.86502 | 5943 ft | 181 kts | 1° |
| 2026-05-06 21:12 | 5.79819 | 15.86489 | 5943 ft | 181 kts | 0° |
| 2026-05-06 21:13 | 5.81077 | 15.86449 | 5945 ft | 181 kts | 359° |
| 2026-05-06 21:13 | 5.82335 | 15.86384 | 5941 ft | 181 kts | 358° |
| 2026-05-06 21:13 | 5.83591 | 15.86293 | 5943 ft | 181 kts | 357° |
| 2026-05-06 21:13 | 5.84846 | 15.86175 | 5945 ft | 181 kts | 355° |
| 2026-05-06 21:14 | 5.86097 | 15.86029 | 5948 ft | 181 kts | 354° |
| 2026-05-06 21:14 | 5.87350 | 15.85855 | 5951 ft | 182 kts | 353° |
| 2026-05-06 21:14 | 5.88600 | 15.85654 | 5949 ft | 182 kts | 352° |
| 2026-05-06 21:14 | 5.89847 | 15.85426 | 5948 ft | 182 kts | 351° |
| 2026-05-06 21:15 | 5.91093 | 15.85170 | 5959 ft | 183 kts | 349° |
| 2026-05-06 21:15 | 5.92337 | 15.84885 | 5956 ft | 183 kts | 348° |
| 2026-05-06 21:15 | 5.93575 | 15.84570 | 5958 ft | 184 kts | 347° |
| 2026-05-06 21:15 | 5.94816 | 15.84224 | 5951 ft | 184 kts | 345° |
| 2026-05-06 21:16 | 5.96027 | 15.83857 | 5948 ft | 184 kts | 344° |
| 2026-05-06 21:16 | 5.97243 | 15.83457 | 5952 ft | 184 kts | 343° |
| 2026-05-06 21:16 | 5.98450 | 15.83031 | 5952 ft | 184 kts | 341° |
| 2026-05-06 21:16 | 5.99650 | 15.82575 | 5954 ft | 185 kts | 340° |
| 2026-05-06 21:17 | 6.00845 | 15.82091 | 5955 ft | 185 kts | 339° |
| 2026-05-06 21:17 | 6.02029 | 15.81579 | 5955 ft | 185 kts | 337° |
| 2026-05-06 21:17 | 6.03200 | 15.81043 | 5953 ft | 185 kts | 336° |
| 2026-05-06 21:17 | 6.04356 | 15.80481 | 5954 ft | 184 kts | 335° |
| 2026-05-06 21:18 | 6.05500 | 15.79893 | 5953 ft | 185 kts | 333° |
| 2026-05-06 21:18 | 6.06632 | 15.79280 | 5952 ft | 185 kts | 332° |
| 2026-05-06 21:18 | 6.07748 | 15.78643 | 5949 ft | 185 kts | 330° |
| 2026-05-06 21:18 | 6.08855 | 15.77978 | 5955 ft | 184 kts | 329° |
| 2026-05-06 21:19 | 6.09941 | 15.77292 | 5956 ft | 185 kts | 328° |
| 2026-05-06 21:19 | 6.11015 | 15.76582 | 5957 ft | 185 kts | 327° |
| 2026-05-06 21:19 | 6.12059 | 15.75859 | 5953 ft | 185 kts | 326° |
| 2026-05-06 21:19 | 6.13101 | 15.75102 | 5954 ft | 184 kts | 324° |
| 2026-05-06 21:20 | 6.14126 | 15.74323 | 5955 ft | 184 kts | 323° |
| 2026-05-06 21:20 | 6.15132 | 15.73521 | 5957 ft | 184 kts | 321° |
| 2026-05-06 21:20 | 6.16118 | 15.72695 | 5965 ft | 185 kts | 320° |
| 2026-05-06 21:20 | 6.17090 | 15.71846 | 5966 ft | 185 kts | 319° |
| 2026-05-06 21:21 | 6.18047 | 15.70976 | 5964 ft | 185 kts | 318° |
| 2026-05-06 21:21 | 6.18984 | 15.70086 | 5962 ft | 186 kts | 316° |
| 2026-05-06 21:21 | 6.19904 | 15.69172 | 5961 ft | 186 kts | 315° |
| 2026-05-06 21:21 | 6.20790 | 15.68253 | 5961 ft | 186 kts | 314° |
| 2026-05-06 21:22 | 6.21672 | 15.67300 | 5965 ft | 186 kts | 313° |
| 2026-05-06 21:22 | 6.22533 | 15.66330 | 5964 ft | 186 kts | 311° |
| 2026-05-06 21:22 | 6.23377 | 15.65340 | 5965 ft | 187 kts | 310° |
| 2026-05-06 21:22 | 6.24203 | 15.64327 | 5963 ft | 187 kts | 311° |
| 2026-05-06 21:23 | 6.25283 | 15.63666 | 5952 ft | 183 kts | 351° |
| 2026-05-06 21:23 | 6.26544 | 15.63580 | 5967 ft | 181 kts | 0° |
| 2026-05-06 21:23 | 6.27805 | 15.63574 | 5968 ft | 181 kts | 3° |
| 2026-05-06 21:23 | 6.29067 | 15.63607 | 5968 ft | 181 kts | 4° |
| 2026-05-06 21:24 | 6.30326 | 15.63659 | 5969 ft | 181 kts | 5° |
| 2026-05-06 21:24 | 6.31586 | 15.63722 | 5968 ft | 181 kts | 5° |
| 2026-05-06 21:24 | 6.32844 | 15.63790 | 5966 ft | 181 kts | 5° |
| 2026-05-06 21:24 | 6.34104 | 15.63862 | 5965 ft | 181 kts | 5° |
| 2026-05-06 21:25 | 6.35361 | 15.63934 | 5964 ft | 181 kts | 6° |
| 2026-05-06 21:25 | 6.36601 | 15.64110 | 5967 ft | 180 kts | 13° |
| 2026-05-06 21:25 | 6.37831 | 15.64357 | 5964 ft | 180 kts | 14° |
| 2026-05-06 21:25 | 6.39063 | 15.64615 | 5964 ft | 181 kts | 15° |
| 2026-05-06 21:26 | 6.40280 | 15.64880 | 5967 ft | 181 kts | 15° |
| 2026-05-06 21:26 | 6.41513 | 15.65154 | 5966 ft | 181 kts | 15° |
| 2026-05-06 21:26 | 6.42741 | 15.65432 | 5964 ft | 181 kts | 15° |
| 2026-05-06 21:26 | 6.43971 | 15.65713 | 5963 ft | 181 kts | 15° |
| 2026-05-06 21:27 | 6.45196 | 15.65992 | 5962 ft | 180 kts | 15° |
| 2026-05-06 21:27 | 6.46420 | 15.66270 | 5965 ft | 181 kts | 15° |
| 2026-05-06 21:27 | 6.47648 | 15.66552 | 5964 ft | 181 kts | 16° |
| 2026-05-06 21:27 | 6.48850 | 15.66912 | 5964 ft | 180 kts | 21° |
| 2026-05-06 21:28 | 6.50040 | 15.67312 | 5968 ft | 180 kts | 21° |
| 2026-05-06 21:28 | 6.51227 | 15.67728 | 5964 ft | 180 kts | 22° |
| 2026-05-06 21:28 | 6.52407 | 15.68149 | 5960 ft | 180 kts | 22° |
| 2026-05-06 21:28 | 6.53583 | 15.68575 | 5964 ft | 180 kts | 22° |
| 2026-05-06 21:29 | 6.54761 | 15.69000 | 5965 ft | 180 kts | 22° |
| 2026-05-06 21:29 | 6.55937 | 15.69424 | 5967 ft | 180 kts | 22° |
| 2026-05-06 21:29 | 6.57117 | 15.69851 | 5969 ft | 180 kts | 22° |
| 2026-05-06 21:29 | 6.58298 | 15.70277 | 5966 ft | 180 kts | 22° |
| 2026-05-06 21:30 | 6.59466 | 15.70695 | 5960 ft | 181 kts | 22° |
| 2026-05-06 21:30 | 6.60650 | 15.71119 | 5960 ft | 180 kts | 22° |
| 2026-05-06 21:30 | 6.61830 | 15.71546 | 5959 ft | 180 kts | 22° |
| 2026-05-06 21:30 | 6.63005 | 15.71972 | 5958 ft | 179 kts | 22° |
| 2026-05-06 21:31 | 6.64180 | 15.72394 | 5962 ft | 179 kts | 22° |
| 2026-05-06 21:31 | 6.65355 | 15.72820 | 5966 ft | 179 kts | 22° |
| 2026-05-06 21:31 | 6.66533 | 15.73246 | 5971 ft | 180 kts | 22° |
| 2026-05-06 21:31 | 6.67713 | 15.73673 | 5965 ft | 180 kts | 22° |
| 2026-05-06 21:32 | 6.68895 | 15.74098 | 5961 ft | 180 kts | 22° |
| 2026-05-06 21:32 | 6.71253 | 15.74958 | 5959 ft | 180 kts | 22° |
| 2026-05-06 21:32 | 6.72424 | 15.75391 | 5955 ft | 179 kts | 23° |
| 2026-05-06 21:33 | 6.73593 | 15.75817 | 5963 ft | 179 kts | 22° |
| 2026-05-06 21:33 | 6.74769 | 15.76251 | 5969 ft | 180 kts | 22° |
| 2026-05-06 21:33 | 6.75951 | 15.76682 | 5964 ft | 181 kts | 22° |
| 2026-05-06 21:33 | 6.77120 | 15.77145 | 5963 ft | 180 kts | 27° |
| 2026-05-06 21:34 | 6.78249 | 15.77695 | 5963 ft | 180 kts | 29° |
| 2026-05-06 21:34 | 6.79364 | 15.78271 | 5962 ft | 180 kts | 30° |
| 2026-05-06 21:34 | 6.80476 | 15.78855 | 5952 ft | 180 kts | 30° |
| 2026-05-06 21:34 | 6.81585 | 15.79447 | 5954 ft | 181 kts | 31° |
| 2026-05-06 21:35 | 6.82697 | 15.80039 | 5948 ft | 181 kts | 30° |
| 2026-05-06 21:35 | 6.83808 | 15.80626 | 5945 ft | 180 kts | 31° |
| 2026-05-06 21:35 | 6.84928 | 15.81220 | 5850 ft | 184 kts | 30° |
| 2026-05-06 21:35 | 6.86071 | 15.81833 | 5726 ft | 187 kts | 30° |
| 2026-05-06 21:36 | 6.87223 | 15.82457 | 5602 ft | 188 kts | 31° |
| 2026-05-06 21:36 | 6.88365 | 15.83078 | 5476 ft | 189 kts | 30° |
| 2026-05-06 21:36 | 6.89524 | 15.83713 | 5357 ft | 190 kts | 31° |
| 2026-05-06 21:36 | 6.90685 | 15.84353 | 5238 ft | 190 kts | 31° |
| 2026-05-06 21:37 | 6.91847 | 15.84995 | 5117 ft | 190 kts | 31° |
| 2026-05-06 21:37 | 6.93005 | 15.85644 | 5026 ft | 190 kts | 31° |
| 2026-05-06 21:37 | 6.94153 | 15.86287 | 4983 ft | 188 kts | 31° |
| 2026-05-06 21:37 | 6.95286 | 15.86926 | 4964 ft | 186 kts | 31° |
| 2026-05-06 21:38 | 6.96408 | 15.87558 | 4954 ft | 184 kts | 31° |
| 2026-05-06 21:38 | 6.97524 | 15.88186 | 4951 ft | 183 kts | 31° |
| 2026-05-06 21:38 | 6.98638 | 15.88809 | 4950 ft | 183 kts | 31° |
| 2026-05-06 21:38 | 6.99755 | 15.89434 | 4947 ft | 183 kts | 31° |
| 2026-05-06 21:39 | 7.00871 | 15.90056 | 4945 ft | 183 kts | 31° |
| 2026-05-06 21:39 | 7.01988 | 15.90674 | 4934 ft | 183 kts | 31° |
| 2026-05-06 21:39 | 7.03101 | 15.91289 | 4933 ft | 182 kts | 30° |
| 2026-05-06 21:39 | 7.04210 | 15.91905 | 4936 ft | 182 kts | 31° |
| 2026-05-06 21:40 | 7.05321 | 15.92522 | 4935 ft | 182 kts | 31° |
| 2026-05-06 21:40 | 7.06431 | 15.93138 | 4921 ft | 182 kts | 30° |
| 2026-05-06 21:40 | 7.07519 | 15.93746 | 4921 ft | 181 kts | 31° |
| 2026-05-06 21:40 | 7.08626 | 15.94361 | 4923 ft | 182 kts | 30° |
| 2026-05-06 21:41 | 7.09732 | 15.94983 | 4923 ft | 182 kts | 31° |
| 2026-05-06 21:41 | 7.10839 | 15.95604 | 4922 ft | 182 kts | 31° |
| 2026-05-06 21:41 | 7.11974 | 15.96164 | 4920 ft | 183 kts | 24° |
| 2026-05-06 21:41 | 7.13164 | 15.96630 | 4922 ft | 183 kts | 22° |
| 2026-05-06 21:42 | 7.14359 | 15.97075 | 4928 ft | 183 kts | 21° |
| 2026-05-06 21:42 | 7.15563 | 15.97509 | 4926 ft | 183 kts | 21° |
| 2026-05-06 21:42 | 7.16766 | 15.97936 | 4926 ft | 183 kts | 20° |
| 2026-05-06 21:42 | 7.17970 | 15.98355 | 4919 ft | 183 kts | 18° |
| 2026-05-06 21:43 | 7.19228 | 15.98561 | 4919 ft | 184 kts | 7° |
| 2026-05-06 21:43 | 7.20503 | 15.98657 | 4923 ft | 184 kts | 4° |
| 2026-05-06 21:43 | 7.21788 | 15.98722 | 4924 ft | 185 kts | 3° |
| 2026-05-06 21:43 | 7.23073 | 15.98771 | 4925 ft | 185 kts | 3° |
| 2026-05-06 21:44 | 7.24345 | 15.98814 | 4932 ft | 186 kts | 2° |
| 2026-05-06 21:44 | 7.25637 | 15.98854 | 4926 ft | 185 kts | 2° |
| 2026-05-06 21:44 | 7.26927 | 15.98892 | 4930 ft | 186 kts | 2° |
| 2026-05-06 21:44 | 7.28217 | 15.98943 | 4918 ft | 185 kts | 4° |
| 2026-05-06 21:45 | 7.29504 | 15.99014 | 4926 ft | 185 kts | 4° |
| 2026-05-06 21:45 | 7.30793 | 15.99069 | 4906 ft | 184 kts | 4° |
| 2026-05-06 21:45 | 7.32075 | 15.99108 | 4908 ft | 184 kts | 4° |
| 2026-05-06 21:45 | 7.33356 | 15.99153 | 4907 ft | 184 kts | 4° |
| 2026-05-06 21:46 | 7.34635 | 15.99200 | 4915 ft | 184 kts | 5° |
| 2026-05-06 21:46 | 7.35915 | 15.99274 | 4916 ft | 184 kts | 6° |
| 2026-05-06 21:46 | 7.37196 | 15.99376 | 4914 ft | 184 kts | 7° |
| 2026-05-06 21:46 | 7.38477 | 15.99482 | 4918 ft | 185 kts | 7° |
| 2026-05-06 21:47 | 7.39753 | 15.99591 | 4914 ft | 184 kts | 7° |
| 2026-05-06 21:47 | 7.41028 | 15.99706 | 4918 ft | 184 kts | 7° |
| 2026-05-06 21:47 | 7.42282 | 15.99826 | 4918 ft | 184 kts | 8° |
| 2026-05-06 21:47 | 7.43562 | 15.99948 | 4919 ft | 184 kts | 7° |
| 2026-05-06 21:48 | 7.44843 | 16.00070 | 4911 ft | 185 kts | 7° |
| 2026-05-06 21:48 | 7.46131 | 16.00196 | 4906 ft | 186 kts | 8° |
| 2026-05-06 21:48 | 7.47417 | 16.00323 | 4904 ft | 186 kts | 8° |
| 2026-05-06 21:48 | 7.48707 | 16.00448 | 4902 ft | 186 kts | 7° |
| 2026-05-06 21:49 | 7.49560 | 16.00532 | 4899 ft | 185 kts | 8° |
| 2026-05-06 21:49 | 7.50842 | 16.00655 | 4899 ft | 185 kts | 7° |
| 2026-05-06 21:49 | 7.52131 | 16.00777 | 4898 ft | 185 kts | 7° |
| 2026-05-06 21:49 | 7.53413 | 16.00906 | 4901 ft | 185 kts | 8° |
| 2026-05-06 21:50 | 7.54699 | 16.01028 | 4903 ft | 185 kts | 7° |
| 2026-05-06 21:50 | 7.55982 | 16.01154 | 4906 ft | 186 kts | 7° |
| 2026-05-06 21:50 | 7.57273 | 16.01279 | 4903 ft | 186 kts | 7° |
| 2026-05-06 21:50 | 7.58559 | 16.01411 | 4902 ft | 186 kts | 8° |
| 2026-05-06 21:51 | 7.59846 | 16.01535 | 4888 ft | 186 kts | 7° |
| 2026-05-06 21:51 | 7.61130 | 16.01655 | 4884 ft | 185 kts | 7° |
| 2026-05-06 21:51 | 7.62409 | 16.01769 | 4884 ft | 184 kts | 7° |
| 2026-05-06 21:51 | 7.63686 | 16.01889 | 4891 ft | 185 kts | 7° |
| 2026-05-06 21:52 | 7.64966 | 16.01983 | 4894 ft | 185 kts | 6° |
| 2026-05-06 21:52 | 7.66252 | 16.02072 | 4889 ft | 185 kts | 6° |
| 2026-05-06 21:52 | 7.67532 | 16.02148 | 4888 ft | 184 kts | 6° |
| 2026-05-06 21:52 | 7.68797 | 16.02221 | 4889 ft | 184 kts | 5° |
| 2026-05-06 21:53 | 7.70076 | 16.02297 | 4889 ft | 184 kts | 6° |
| 2026-05-06 21:53 | 7.71354 | 16.02368 | 4888 ft | 184 kts | 5° |
| 2026-05-06 21:53 | 7.72632 | 16.02440 | 4892 ft | 184 kts | 5° |
| 2026-05-06 21:53 | 7.73914 | 16.02514 | 4876 ft | 184 kts | 5° |
| 2026-05-06 21:54 | 7.75193 | 16.02588 | 4880 ft | 184 kts | 5° |
| 2026-05-06 21:54 | 7.76475 | 16.02662 | 4879 ft | 184 kts | 5° |
| 2026-05-06 21:54 | 7.77754 | 16.02737 | 4879 ft | 184 kts | 5° |
| 2026-05-06 21:54 | 7.79036 | 16.02811 | 4881 ft | 185 kts | 5° |
| 2026-05-06 21:55 | 7.80321 | 16.02891 | 4880 ft | 185 kts | 6° |
| 2026-05-06 21:55 | 7.81607 | 16.02967 | 4879 ft | 185 kts | 5° |
| 2026-05-06 21:55 | 7.82892 | 16.03047 | 4880 ft | 185 kts | 6° |
| 2026-05-06 21:55 | 7.84182 | 16.03123 | 4877 ft | 185 kts | 5° |
| 2026-05-06 21:56 | 7.85466 | 16.03198 | 4880 ft | 185 kts | 5° |
| 2026-05-06 21:56 | 7.86755 | 16.03272 | 4876 ft | 185 kts | 5° |
| 2026-05-06 21:56 | 7.88041 | 16.03348 | 4870 ft | 185 kts | 5° |
| 2026-05-06 21:56 | 7.89324 | 16.03426 | 4870 ft | 185 kts | 6° |
| 2026-05-06 21:57 | 7.90607 | 16.03504 | 4870 ft | 185 kts | 6° |
| 2026-05-06 21:57 | 7.91895 | 16.03580 | 4869 ft | 185 kts | 5° |
| 2026-05-06 21:57 | 7.93181 | 16.03674 | 4870 ft | 185 kts | 7° |
| 2026-05-06 21:57 | 7.94447 | 16.03775 | 4871 ft | 185 kts | 7° |
| 2026-05-06 21:58 | 7.95730 | 16.03872 | 4871 ft | 185 kts | 6° |
| 2026-05-06 21:58 | 7.97012 | 16.03963 | 4865 ft | 184 kts | 6° |
| 2026-05-06 21:58 | 7.98289 | 16.04045 | 4869 ft | 184 kts | 6° |
| 2026-05-06 21:58 | 7.99567 | 16.04128 | 4868 ft | 184 kts | 6° |
| 2026-05-06 21:59 | 8.00841 | 16.04220 | 4871 ft | 184 kts | 6° |
| 2026-05-06 21:59 | 8.02117 | 16.04316 | 4870 ft | 184 kts | 6° |
| 2026-05-06 21:59 | 8.03394 | 16.04408 | 4863 ft | 184 kts | 6° |
| 2026-05-06 21:59 | 8.04672 | 16.04500 | 4868 ft | 184 kts | 5° |
| 2026-05-06 22:00 | 8.05954 | 16.04581 | 4866 ft | 185 kts | 5° |
| 2026-05-06 22:00 | 8.07236 | 16.04665 | 4866 ft | 184 kts | 5° |
| 2026-05-06 22:00 | 8.08512 | 16.04760 | 4868 ft | 184 kts | 6° |
| 2026-05-06 22:00 | 8.09772 | 16.04855 | 4868 ft | 184 kts | 6° |
| 2026-05-06 22:01 | 8.11066 | 16.04949 | 4872 ft | 184 kts | 6° |
| 2026-05-06 22:01 | 8.12333 | 16.05033 | 4866 ft | 185 kts | 5° |
| 2026-05-06 22:01 | 8.13615 | 16.05125 | 4862 ft | 184 kts | 5° |
| 2026-05-06 22:01 | 8.14895 | 16.05213 | 4866 ft | 185 kts | 5° |
| 2026-05-06 22:02 | 8.16180 | 16.05299 | 4864 ft | 185 kts | 6° |
| 2026-05-06 22:02 | 8.17467 | 16.05393 | 4863 ft | 185 kts | 6° |
| 2026-05-06 22:02 | 8.18753 | 16.05485 | 4861 ft | 185 kts | 6° |
| 2026-05-06 22:02 | 8.20039 | 16.05567 | 4856 ft | 185 kts | 5° |
| 2026-05-06 22:03 | 8.21318 | 16.05638 | 4855 ft | 184 kts | 5° |
| 2026-05-06 22:03 | 8.22597 | 16.05707 | 4860 ft | 184 kts | 5° |
| 2026-05-06 22:03 | 8.23873 | 16.05761 | 4861 ft | 184 kts | 4° |
| 2026-05-06 22:03 | 8.25155 | 16.05820 | 4863 ft | 184 kts | 4° |
| 2026-05-06 22:04 | 8.26435 | 16.05882 | 4861 ft | 184 kts | 4° |
| 2026-05-06 22:04 | 8.27713 | 16.05942 | 4866 ft | 184 kts | 4° |
| 2026-05-06 22:04 | 8.28993 | 16.06004 | 4860 ft | 184 kts | 5° |
| 2026-05-06 22:04 | 8.30270 | 16.06064 | 4862 ft | 184 kts | 5° |
| 2026-05-06 22:05 | 8.31545 | 16.06126 | 4856 ft | 183 kts | 5° |